Time;durP1;ratioP1;P1;durP2;ratioP2;P2;SDS_P1;SDS_P2;PMS_P1;PMS_P2;Temp;Humidity;BMP_temperature;BMP_pressure;BME280_temperature;BME280_humidity;BME280_pressure;Samples;Min_cycle;Max_cycle;Signal;HPM_P1;HPM_P2
2022/02/02 00:01:47;;;;;;;5.25;3.65;;;5.20;62.50;;;;;;5075848;28;20039;-77
2022/02/02 00:04:18;;;;;;;2.35;1.20;;;5.20;62.30;;;;;;5093583;28;20020;-77
2022/02/02 00:06:56;;;;;;;1.65;1.40;;;5.30;61.10;;;;;;5093238;28;20024;-77
2022/02/02 00:09:23;;;;;;;5.55;3.60;;;5.30;61.20;;;;;;5092985;28;20457;-77
2022/02/02 00:17:18;;;;;;;2.45;1.70;;;5.00;64.50;;;;;;5092762;28;20025;-77
2022/02/02 00:20:00;;;;;;;1.40;1.30;;;4.90;65.00;;;;;;5092893;28;20093;-77
2022/02/02 00:22:33;;;;;;;0.70;0.70;;;4.80;65.20;;;;;;5074381;28;20028;-77
2022/02/02 00:25:17;;;;;;;2.08;0.80;;;4.80;65.00;;;;;;5074604;28;20217;-77
2022/02/02 00:27:50;;;;;;;1.08;0.90;;;4.70;66.10;;;;;;5073651;28;20602;-77
2022/02/02 00:30:19;;;;;;;0.90;0.90;;;4.60;67.20;;;;;;5074509;28;20393;-77
2022/02/02 00:32:59;;;;;;;1.10;1.00;;;4.60;67.60;;;;;;5074375;28;20432;-76
2022/02/02 00:35:31;;;;;;;0.95;0.95;;;4.50;67.50;;;;;;5074576;28;20424;-77
2022/02/02 00:37:57;;;;;;;1.45;1.27;;;4.50;67.60;;;;;;5085576;28;20094;-77
2022/02/02 00:40:23;;;;;;;1.95;1.00;;;4.40;67.60;;;;;;5054386;28;20093;-77
2022/02/02 00:42:50;;;;;;;1.60;1.20;;;4.40;68.40;;;;;;5071810;28;20044;-77
2022/02/02 00:45:17;;;;;;;3.30;1.98;;;4.20;69.00;;;;;;5087980;28;20151;-77
2022/02/02 00:47:47;;;;;;;1.40;1.30;;;4.20;69.70;;;;;;5054483;28;20081;-77
2022/02/02 00:50:13;;;;;;;1.30;1.00;;;4.10;69.70;;;;;;5072199;28;20020;-77
2022/02/02 00:52:39;;;;;;;1.35;1.25;;;4.10;70.00;;;;;;5054003;28;20066;-77
2022/02/02 00:55:05;;;;;;;2.00;1.17;;;4.10;70.70;;;;;;5072110;28;20052;-77
2022/02/02 00:57:30;;;;;;;1.20;1.10;;;4.10;70.70;;;;;;5071952;28;20481;-77
2022/02/02 00:59:57;;;;;;;0.90;0.90;;;4.10;70.80;;;;;;5071909;28;20035;-77
2022/02/02 01:02:23;;;;;;;1.63;0.85;;;4.00;71.10;;;;;;5071916;28;20028;-77
2022/02/02 01:04:52;;;;;;;0.70;0.70;;;3.70;71.20;;;;;;5071853;28;20043;-77
2022/02/02 01:10:10;;;;;;;0.50;0.50;;;4.00;71.80;;;;;;5071861;28;20119;-77
2022/02/02 01:12:49;;;;;;;0.68;0.68;;;4.10;70.40;;;;;;5071673;28;20025;-77
2022/02/02 01:17:48;;;;;;;0.90;0.85;;;4.40;69.60;;;;;;5071902;28;20028;-77
2022/02/02 01:28:12;;;;;;;1.35;1.05;;;4.30;70.60;;;;;;5051747;28;20031;-76
2022/02/02 01:30:39;;;;;;;1.42;1.33;;;4.10;71.60;;;;;;5051442;28;20029;-77
2022/02/02 01:33:04;;;;;;;1.20;1.00;;;4.10;72.30;;;;;;5051718;28;20027;-77
2022/02/02 01:35:30;;;;;;;1.52;1.42;;;4.00;72.80;;;;;;5051487;28;20025;-77
2022/02/02 01:37:56;;;;;;;1.23;1.13;;;3.90;72.80;;;;;;5051542;28;20449;-77
2022/02/02 01:40:46;;;;;;;1.63;1.35;;;3.90;73.30;;;;;;5060358;28;20066;-77
2022/02/02 01:43:22;;;;;;;1.80;1.70;;;3.90;73.00;;;;;;5071056;28;20044;-77
2022/02/02 01:45:55;;;;;;;1.50;1.38;;;3.80;72.90;;;;;;5071385;28;20027;-76
2022/02/02 01:56:02;;;;;;;1.07;0.97;;;3.50;74.70;;;;;;5071455;28;20445;-77
2022/02/02 02:00:58;;;;;;;1.50;1.33;;;3.60;75.30;;;;;;5071184;28;20619;-77
2022/02/02 02:03:23;;;;;;;2.60;1.88;;;3.50;75.50;;;;;;5071217;28;20024;-77
2022/02/02 02:05:49;;;;;;;2.50;1.98;;;3.60;75.90;;;;;;5071305;28;20021;-77
2022/02/02 02:08:16;;;;;;;1.47;1.30;;;3.50;75.70;;;;;;5071140;28;20036;-77
2022/02/02 02:10:41;;;;;;;1.50;1.40;;;3.50;75.80;;;;;;5086564;28;20074;-77
2022/02/02 02:13:16;;;;;;;1.73;1.33;;;3.50;75.80;;;;;;5071375;28;20467;-77
2022/02/02 02:15:43;;;;;;;3.90;1.30;;;3.50;76.20;;;;;;5071331;28;20535;-77
2022/02/02 02:18:09;;;;;;;1.37;1.27;;;3.60;76.00;;;;;;5071166;28;20024;-77
2022/02/02 02:20:36;;;;;;;1.53;1.17;;;3.60;76.30;;;;;;5070993;28;20578;-77
2022/02/02 02:23:02;;;;;;;1.50;1.17;;;3.60;76.40;;;;;;5054282;28;20024;-77
2022/02/02 02:25:31;;;;;;;1.50;1.40;;;3.60;77.00;;;;;;5072265;28;20393;-77
2022/02/02 02:28:30;;;;;;;1.60;1.10;;;3.70;76.60;;;;;;5054366;28;20021;-77
2022/02/02 02:30:54;;;;;;;0.93;0.90;;;3.80;76.40;;;;;;5063543;28;20062;-76
2022/02/02 02:57:53;;;;;;;1.53;0.83;;;3.30;80.00;;;;;;5074385;28;20082;-77
2022/02/02 03:30:10;;;;;;;0.90;0.90;;;3.40;81.70;;;;;;5074479;28;20043;-77
2022/02/02 04:09:20;;;;;;;1.43;1.33;;;3.10;85.10;;;;;;5072842;28;20386;-77
2022/02/02 04:11:56;;;;;;;1.30;1.10;;;3.10;85.70;;;;;;5073066;28;20083;-77
2022/02/02 04:39:11;;;;;;;2.57;2.37;;;3.10;86.60;;;;;;5072597;28;20058;-77
2022/02/02 04:58:03;;;;;;;5.53;3.37;;;3.30;88.60;;;;;;5072236;28;20032;-77
2022/02/02 05:11:29;;;;;;;9.88;3.92;;;3.50;90.00;;;;;;5071738;28;20032;-77
2022/02/02 05:16:43;;;;;;;8.05;4.72;;;3.50;90.10;;;;;;5071930;28;20119;-77
2022/02/02 05:49:16;;;;;;;9.37;5.30;;;3.30;93.00;;;;;;5060803;28;20064;-77
2022/02/02 05:51:58;;;;;;;9.77;6.03;;;3.30;93.10;;;;;;5057468;28;20032;-78
2022/02/02 05:54:24;;;;;;;8.93;5.47;;;3.40;93.30;;;;;;5061168;28;20016;-77
2022/02/02 05:56:52;;;;;;;9.07;5.50;;;3.40;93.20;;;;;;5043027;28;20082;-77
2022/02/02 05:59:23;;;;;;;7.23;4.90;;;3.50;93.10;;;;;;5059560;28;20830;-77
2022/02/02 06:01:58;;;;;;;6.70;5.60;;;3.60;92.90;;;;;;5058983;28;20036;-77
2022/02/02 06:04:30;;;;;;;10.50;5.97;;;3.40;93.60;;;;;;5060234;28;20440;-77
2022/02/02 06:06:59;;;;;;;6.90;5.22;;;3.30;94.20;;;;;;5051148;28;20017;-77
2022/02/02 06:09:32;;;;;;;9.23;5.80;;;3.40;94.20;;;;;;5052355;28;20025;-77
2022/02/02 06:11:59;;;;;;;10.23;6.73;;;3.40;94.30;;;;;;5071189;28;20031;-77
2022/02/02 06:14:30;;;;;;;14.60;7.77;;;3.40;94.50;;;;;;5053311;28;20024;-77
2022/02/02 06:17:04;;;;;;;12.83;8.43;;;3.50;94.60;;;;;;5071148;28;20112;-77
2022/02/02 06:19:30;;;;;;;12.80;6.93;;;3.50;94.60;;;;;;5071124;28;20070;-78
2022/02/02 06:22:19;;;;;;;13.20;6.50;;;3.30;95.00;;;;;;5069922;28;20025;-77
2022/02/02 06:25:09;;;;;;;12.37;6.63;;;3.30;95.50;;;;;;5060963;28;20103;-77
2022/02/02 06:27:41;;;;;;;11.37;6.23;;;3.30;95.70;;;;;;5072892;28;20029;-77
2022/02/02 06:30:09;;;;;;;14.60;6.82;;;3.40;95.60;;;;;;5054889;28;20024;-77
2022/02/02 06:32:47;;;;;;;10.13;6.77;;;3.40;95.50;;;;;;5054930;28;20394;-78
2022/02/02 06:35:14;;;;;;;9.60;7.10;;;3.30;95.70;;;;;;5054919;28;20040;-77
2022/02/02 06:37:41;;;;;;;10.97;6.73;;;3.30;95.90;;;;;;5056094;28;20081;-77
2022/02/02 06:40:09;;;;;;;14.77;6.37;;;3.30;95.90;;;;;;5067866;28;20059;-78
2022/02/02 06:42:40;;;;;;;11.37;7.13;;;3.40;95.90;;;;;;5054501;28;20449;-77
2022/02/02 06:45:07;;;;;;;13.30;7.60;;;3.40;96.00;;;;;;5036869;28;20021;-77
2022/02/02 06:47:35;;;;;;;8.17;7.27;;;3.40;96.10;;;;;;5075186;28;20440;-77
2022/02/02 06:50:15;;;;;;;12.17;6.83;;;3.20;95.80;;;;;;5056731;28;20024;-77
2022/02/02 06:53:08;;;;;;;11.33;6.97;;;3.20;96.10;;;;;;5057242;28;20039;-77
2022/02/02 06:55:46;;;;;;;13.00;7.47;;;3.20;96.40;;;;;;5074443;28;20017;-77
2022/02/02 06:58:34;;;;;;;12.87;7.63;;;3.00;96.80;;;;;;5056431;28;20028;-77
2022/02/02 07:01:28;;;;;;;14.73;8.10;;;3.10;97.50;;;;;;5074434;28;20024;-77
2022/02/02 07:04:21;;;;;;;12.33;8.20;;;3.10;98.00;;;;;;5050333;28;20462;-77
2022/02/02 07:07:18;;;;;;;14.10;8.43;;;3.00;98.10;;;;;;5056313;28;20035;-78
2022/02/02 07:10:07;;;;;;;20.37;9.30;;;3.00;98.80;;;;;;5074013;28;20478;-77
2022/02/02 07:15:29;;;;;;;15.67;9.30;;;3.20;99.50;;;;;;5094398;28;20477;-77
2022/02/02 07:24:25;;;;;;;13.43;8.60;;;3.10;99.90;;;;;;5031513;28;20177;-77
2022/02/02 07:34:52;;;;;;;18.30;10.60;;;3.30;99.90;;;;;;5093924;28;20028;-77
2022/02/02 07:37:30;;;;;;;18.40;11.83;;;3.30;99.90;;;;;;5093847;28;20020;-77
2022/02/02 07:39:58;;;;;;;22.07;15.73;;;3.30;99.90;;;;;;5070480;28;20028;-77
2022/02/02 07:42:25;;;;;;;27.60;15.27;;;3.40;99.90;;;;;;5072940;28;20040;-77
2022/02/02 07:44:54;;;;;;;18.43;12.13;;;3.40;99.90;;;;;;5066345;28;20060;-77
2022/02/02 07:47:21;;;;;;;15.30;10.83;;;3.50;99.90;;;;;;5073574;28;20112;-77
2022/02/02 07:49:54;;;;;;;16.53;10.20;;;3.60;99.90;;;;;;5072368;28;20024;-77
2022/02/02 07:52:21;;;;;;;38.20;20.50;;;3.70;99.90;;;;;;5072305;28;20040;-77
2022/02/02 07:54:49;;;;;;;32.07;19.57;;;3.70;99.90;;;;;;5073579;28;20024;-76
2022/02/02 07:57:26;;;;;;;34.13;18.77;;;3.80;99.90;;;;;;5069254;28;20025;-77
2022/02/02 08:02:36;;;;;;;29.60;16.60;;;3.90;99.90;;;;;;5073314;28;20028;-77
2022/02/02 08:05:03;;;;;;;31.17;17.07;;;3.90;99.90;;;;;;5073450;28;20044;-77
2022/02/02 08:07:36;;;;;;;29.00;16.23;;;4.00;99.90;;;;;;5071297;28;20107;-77
2022/02/02 08:12:50;;;;;;;28.33;15.40;;;4.00;99.90;;;;;;5073685;28;20041;-77
2022/02/02 08:15:18;;;;;;;24.67;15.40;;;4.20;99.90;;;;;;5073768;28;20024;-76
2022/02/02 08:17:44;;;;;;;28.40;16.00;;;4.20;99.90;;;;;;5072710;28;20016;-77
2022/02/02 08:20:11;;;;;;;21.97;14.30;;;4.20;99.90;;;;;;5068122;28;20063;-77
2022/02/02 08:22:39;;;;;;;23.60;14.27;;;4.30;99.90;;;;;;5073288;28;20479;-77
2022/02/02 08:25:10;;;;;;;26.90;15.17;;;4.30;99.90;;;;;;5067498;28;20020;-77
2022/02/02 08:27:40;;;;;;;25.17;15.65;;;4.30;99.90;;;;;;5072720;28;20432;-77
2022/02/02 08:30:11;;;;;;;26.57;15.23;;;4.40;99.90;;;;;;5067349;28;20035;-77
2022/02/02 08:32:50;;;;;;;25.52;15.88;;;4.50;99.90;;;;;;5072789;28;20021;-77
2022/02/02 08:35:19;;;;;;;30.10;15.73;;;4.50;99.90;;;;;;5072568;28;20035;-77
2022/02/02 08:37:49;;;;;;;23.90;15.68;;;4.50;99.90;;;;;;5064555;28;20486;-77
2022/02/02 08:40:26;;;;;;;23.93;14.67;;;4.50;99.90;;;;;;5064283;28;20104;-77
2022/02/02 08:42:53;;;;;;;28.53;16.00;;;4.60;99.90;;;;;;5057541;28;20207;-77
2022/02/02 08:45:28;;;;;;;26.17;16.13;;;4.60;99.90;;;;;;5052552;28;20134;-77
2022/02/02 08:48:06;;;;;;;25.13;14.88;;;4.60;99.90;;;;;;5071733;28;20026;-77
2022/02/02 08:50:46;;;;;;;26.50;14.93;;;4.70;99.90;;;;;;5072185;28;20027;-77
2022/02/02 08:53:37;;;;;;;23.67;13.88;;;4.80;99.90;;;;;;5054404;28;20027;-77
2022/02/02 08:56:20;;;;;;;24.63;14.00;;;4.90;99.90;;;;;;5071552;28;20036;-77
2022/02/02 08:58:48;;;;;;;20.23;12.65;;;4.90;99.90;;;;;;5054307;28;20046;-77
2022/02/02 09:01:24;;;;;;;23.23;13.05;;;5.00;99.90;;;;;;5072026;28;20020;-77
2022/02/02 09:06:34;;;;;;;20.98;11.55;;;5.10;99.90;;;;;;5071750;28;20066;-77
2022/02/02 09:09:16;;;;;;;22.60;12.45;;;5.20;99.90;;;;;;5063524;28;20081;-77
2022/02/02 09:20:31;;;;;;;22.05;12.02;;;5.50;99.90;;;;;;5064192;28;20132;-76
2022/02/02 09:25:27;;;;;;;21.85;12.02;;;5.60;99.90;;;;;;5047078;28;20029;-77
2022/02/02 09:35:57;;;;;;;20.65;11.02;;;5.80;99.90;;;;;;5047112;28;20025;-77
2022/02/02 09:38:23;;;;;;;18.60;11.48;;;5.80;99.90;;;;;;5047966;28;20021;-77
2022/02/02 09:43:25;;;;;;;19.45;12.30;;;5.90;99.90;;;;;;5070712;28;20049;-77
2022/02/02 09:45:59;;;;;;;23.65;12.20;;;6.00;99.90;;;;;;5053711;28;20020;-77
2022/02/02 09:48:40;;;;;;;20.55;11.68;;;6.10;99.90;;;;;;5071747;28;20493;-78
2022/02/02 09:51:10;;;;;;;26.95;13.15;;;6.20;99.90;;;;;;5052016;28;20028;-77
2022/02/02 09:53:44;;;;;;;20.50;11.35;;;6.30;99.90;;;;;;5038880;28;20094;-78
2022/02/02 10:05:01;;;;;;;23.15;12.73;;;6.40;99.90;;;;;;5051095;28;20455;-76
2022/02/02 10:09:58;;;;;;;21.70;12.35;;;6.40;99.90;;;;;;5051793;28;20017;-77
2022/02/02 10:15:17;;;;;;;26.08;12.07;;;6.60;99.90;;;;;;5059404;28;20025;-77
2022/02/02 10:17:45;;;;;;;25.95;13.18;;;6.60;99.90;;;;;;5061813;28;20016;-76
2022/02/02 10:20:22;;;;;;;24.10;11.75;;;6.60;99.90;;;;;;5061161;28;20025;-76
2022/02/02 10:22:51;;;;;;;23.85;11.93;;;6.80;99.90;;;;;;5060739;28;20166;-76
2022/02/02 10:25:43;;;;;;;23.98;12.18;;;6.80;99.90;;;;;;5043565;28;20470;-77
2022/02/02 10:28:20;;;;;;;26.67;12.35;;;6.90;99.90;;;;;;5062582;28;20116;-76
2022/02/02 10:30:53;;;;;;;22.10;11.68;;;7.10;99.90;;;;;;5048638;28;20021;-77
2022/02/02 10:33:25;;;;;;;21.27;11.55;;;7.10;99.90;;;;;;5054050;28;20052;-78
2022/02/02 10:35:54;;;;;;;25.50;12.68;;;7.10;99.90;;;;;;5068663;28;20036;-78
2022/02/02 10:38:26;;;;;;;22.67;12.32;;;7.10;99.90;;;;;;5058644;28;20025;-78
2022/02/02 10:41:37;;;;;;;20.35;11.48;;;7.10;99.90;;;;;;5064119;28;20529;-78
2022/02/02 10:43:58;;;;;;;18.08;11.65;;;7.10;99.90;;;;;;5024651;28;20141;-78
2022/02/02 10:49:05;;;;;;;19.55;11.07;;;7.20;99.90;;;;;;5053870;28;20136;-79
2022/02/02 11:01:46;;;;;;;22.40;11.93;;;7.30;99.90;;;;;;5048653;28;20064;-76
2022/02/02 11:06:59;;;;;;;19.42;11.30;;;7.60;99.90;;;;;;5047758;28;20040;-76
2022/02/02 11:09:25;;;;;;;22.90;11.55;;;7.70;99.90;;;;;;5031257;28;20019;-76
2022/02/02 11:11:54;;;;;;;19.77;10.30;;;7.80;99.90;;;;;;5033717;28;20063;-76
2022/02/02 11:14:36;;;;;;;22.75;11.25;;;7.80;99.90;;;;;;5034190;28;20052;-74
2022/02/02 11:17:11;;;;;;;26.10;11.80;;;7.80;99.90;;;;;;5034091;28;20029;-74
2022/02/02 11:19:38;;;;;;;24.27;12.23;;;8.00;99.90;;;;;;5034019;28;20029;-73
2022/02/02 11:22:19;;;;;;;21.67;11.73;;;8.00;99.90;;;;;;5039803;28;20510;-74
2022/02/02 11:24:45;;;;;;;20.77;11.30;;;8.10;99.90;;;;;;5053792;28;20024;-74
2022/02/02 11:27:31;;;;;;;21.60;12.23;;;8.20;99.90;;;;;;5051527;28;20338;-74
2022/02/02 11:29:57;;;;;;;21.83;12.13;;;8.40;99.90;;;;;;5051718;28;20031;-74
2022/02/02 11:32:23;;;;;;;26.35;14.02;;;8.50;99.90;;;;;;5051884;28;20100;-76
2022/02/02 11:35:24;;;;;;;24.55;12.60;;;8.50;99.90;;;;;;5051915;28;20457;-76
2022/02/02 11:38:18;;;;;;;26.35;13.15;;;8.70;99.90;;;;;;5044305;28;20043;-76
2022/02/02 11:41:07;;;;;;;23.70;12.07;;;8.80;99.90;;;;;;5045286;28;20021;-77
2022/02/02 11:43:57;;;;;;;23.95;12.05;;;8.90;99.90;;;;;;5070775;28;20048;-76
2022/02/02 11:49:50;;;;;;;24.48;12.82;;;8.80;99.90;;;;;;5073755;28;20110;-77
2022/02/02 11:52:38;;;;;;;25.60;11.43;;;8.80;99.90;;;;;;5055930;28;20432;-76
2022/02/02 11:55:12;;;;;;;23.75;12.52;;;8.90;99.90;;;;;;5073439;28;20486;-77
2022/02/02 11:58:15;;;;;;;21.88;12.10;;;9.00;99.90;;;;;;5073312;28;21193;-76
2022/02/02 12:01:19;;;;;;;25.95;13.25;;;9.10;99.90;;;;;;5065484;28;20024;-77
2022/02/02 12:57:44;;;;;;;26.58;11.38;;;10.80;99.00;;;;;;5052396;28;20025;-77
2022/02/02 13:00:21;;;;;;;26.60;12.85;;;10.90;99.10;;;;;;5052011;28;20089;-77
2022/02/02 13:02:47;;;;;;;26.92;10.57;;;10.90;98.80;;;;;;5034274;28;20506;-77
2022/02/02 13:05:14;;;;;;;22.33;10.65;;;10.90;99.60;;;;;;5052161;28;20021;-76
2022/02/02 13:07:42;;;;;;;20.95;11.68;;;10.90;99.50;;;;;;5034253;28;20394;-76
2022/02/02 13:10:12;;;;;;;22.95;12.20;;;11.00;99.00;;;;;;5034258;28;20524;-76
2022/02/02 13:21:04;;;;;;;29.10;11.65;;;10.80;98.90;;;;;;5051672;28;20041;-76
2022/02/02 13:23:37;;;;;;;25.70;11.50;;;10.90;99.40;;;;;;5034067;28;20028;-76
2022/02/02 13:26:10;;;;;;;28.55;11.20;;;10.90;99.40;;;;;;5051661;28;20059;-76
2022/02/02 13:28:51;;;;;;;19.02;10.80;;;10.80;99.20;;;;;;5052076;28;20498;-76
2022/02/02 13:32:06;;;;;;;20.67;10.25;;;10.80;99.20;;;;;;5033901;28;20486;-76
2022/02/02 13:34:31;;;;;;;17.65;11.05;;;10.80;99.50;;;;;;5048920;28;20029;-76
2022/02/02 14:33:29;;;;;;;28.52;12.93;;;10.50;98.90;;;;;;5072783;28;20040;-76
2022/02/02 14:35:58;;;;;;;21.08;11.63;;;10.40;99.10;;;;;;5072697;28;20029;-76
2022/02/02 14:38:25;;;;;;;24.42;12.68;;;10.30;99.30;;;;;;5071409;28;20056;-76
2022/02/02 14:43:28;;;;;;;23.02;12.40;;;10.30;99.30;;;;;;5087687;28;20097;-76
2022/02/02 14:45:57;;;;;;;22.48;12.05;;;10.20;99.10;;;;;;5092786;28;20020;-76
2022/02/02 14:48:31;;;;;;;27.02;11.98;;;10.20;99.60;;;;;;5096162;28;20023;-77
2022/02/02 14:51:19;;;;;;;28.73;12.60;;;10.20;99.40;;;;;;5095903;28;20039;-76
2022/02/02 14:53:49;;;;;;;24.55;11.13;;;10.10;99.60;;;;;;5096259;28;20085;-77
2022/02/02 14:56:38;;;;;;;20.02;11.98;;;10.00;99.70;;;;;;5096169;28;20385;-77
2022/02/02 15:29:02;;;;;;;24.55;13.65;;;9.70;99.90;;;;;;5095568;28;20035;-77
2022/02/02 15:31:28;;;;;;;23.80;12.95;;;9.70;99.90;;;;;;5094973;28;20019;-77
2022/02/02 15:33:56;;;;;;;28.92;12.95;;;9.70;99.90;;;;;;5094929;28;20024;-76
2022/02/02 15:39:11;;;;;;;29.05;11.98;;;9.50;99.90;;;;;;5095076;28;20028;-77
2022/02/02 15:41:50;;;;;;;26.00;12.93;;;9.40;99.90;;;;;;5072667;28;20116;-77
2022/02/02 16:03:02;;;;;;;31.23;15.23;;;9.10;99.90;;;;;;5053524;28;20386;-78
2022/02/02 16:05:41;;;;;;;26.35;14.10;;;9.10;99.90;;;;;;5051543;28;20147;-77
2022/02/02 16:08:08;;;;;;;30.10;14.38;;;9.00;99.90;;;;;;5033736;28;20036;-77
2022/02/02 16:10:44;;;;;;;33.00;13.80;;;8.90;99.90;;;;;;5033581;28;20021;-77
2022/02/02 16:13:26;;;;;;;41.78;18.90;;;8.80;99.90;;;;;;5051946;28;20028;-77
2022/02/02 16:15:59;;;;;;;32.70;17.08;;;8.80;99.90;;;;;;5053194;28;20028;-77
2022/02/02 16:32:10;;;;;;;27.13;13.65;;;8.40;99.90;;;;;;5052600;28;20032;-77
2022/02/02 16:37:08;;;;;;;22.48;12.77;;;8.30;99.90;;;;;;5052475;28;20084;-77
2022/02/02 16:39:45;;;;;;;23.63;12.50;;;8.30;99.90;;;;;;5052338;28;20025;-77
2022/02/02 16:44:54;;;;;;;32.30;13.13;;;8.20;99.90;;;;;;5066447;28;20063;-77
2022/02/02 16:47:22;;;;;;;22.95;11.95;;;8.20;99.90;;;;;;5054031;28;20028;-77
2022/02/02 16:49:48;;;;;;;19.13;12.68;;;8.30;99.90;;;;;;5072018;28;20017;-77
2022/02/02 16:52:16;;;;;;;16.30;8.90;;;8.10;99.90;;;;;;5072130;28;20561;-77
2022/02/02 16:54:44;;;;;;;16.80;8.52;;;8.10;99.90;;;;;;5071764;28;20035;-77
2022/02/02 16:57:27;;;;;;;19.25;9.38;;;8.00;99.90;;;;;;5071807;28;20238;-77
2022/02/02 17:30:17;;;;;;;29.50;16.23;;;7.90;99.90;;;;;;5072362;28;20735;-77
2022/02/02 17:37:48;;;;;;;34.92;18.52;;;7.70;99.90;;;;;;5072610;28;20159;-77
2022/02/02 17:40:32;;;;;;;47.83;22.25;;;7.60;99.90;;;;;;5072429;28;20438;-77
2022/02/02 18:20:41;;;;;;;0.35;0.35;;;10.10;86.50;;;;;;5072146;28;20033;-77
2022/02/02 18:26:12;;;;;;;0.60;0.60;;;10.40;83.80;;;;;;5075538;28;20060;-77
2022/02/02 18:28:31;;;;;;;0.40;0.40;;;10.50;82.30;;;;;;5072416;28;20573;-77
2022/02/02 18:58:29;;;;;;;0.75;0.75;;;10.30;81.00;;;;;;5038452;28;20037;-76
2022/02/02 19:06:38;;;;;;;1.30;1.17;;;10.00;81.60;;;;;;5075820;28;20078;-76
2022/02/02 19:39:58;;;;;;;1.13;1.02;;;10.00;81.20;;;;;;5052795;28;20044;-76
2022/02/02 19:53:10;;;;;;;52.45;22.73;;;9.40;89.50;;;;;;5069730;28;20390;-77
2022/02/02 20:09:07;;;;;;;1.80;1.70;;;9.10;88.50;;;;;;5069144;28;20017;-78
2022/02/02 20:11:32;;;;;;;1.25;1.15;;;9.20;87.30;;;;;;5051781;28;20040;-77
2022/02/02 20:13:58;;;;;;;0.75;0.75;;;9.30;86.50;;;;;;5040231;28;20056;-77
2022/02/02 20:16:27;;;;;;;1.23;0.40;;;9.50;86.10;;;;;;5070055;28;20025;-76
2022/02/02 20:18:56;;;;;;;0.35;0.35;;;9.60;85.30;;;;;;5061618;28;20029;-77
2022/02/02 20:21:25;;;;;;;0.70;0.40;;;9.60;85.50;;;;;;5038974;28;20025;-76
2022/02/02 20:23:51;;;;;;;0.47;0.47;;;9.70;85.10;;;;;;5062603;28;20017;-77
2022/02/02 20:26:21;;;;;;;0.47;0.47;;;9.80;84.90;;;;;;5033023;28;20017;-77
2022/02/02 20:28:47;;;;;;;0.50;0.50;;;9.80;84.30;;;;;;5069737;28;20103;-76
2022/02/02 20:31:14;;;;;;;0.57;0.50;;;9.80;84.60;;;;;;5071230;28;20095;-78
2022/02/02 20:33:41;;;;;;;0.50;0.50;;;9.80;84.80;;;;;;5071066;28;20494;-79
2022/02/02 20:36:07;;;;;;;0.50;0.45;;;9.70;84.70;;;;;;5071214;28;20099;-78
2022/02/02 20:38:33;;;;;;;0.43;0.43;;;9.80;84.30;;;;;;5071191;28;20032;-78
2022/02/02 20:41:00;;;;;;;0.80;0.70;;;10.00;83.60;;;;;;5070222;28;20039;-78
2022/02/02 21:00:29;;;;;;;0.63;0.52;;;10.50;79.90;;;;;;5070367;28;20112;-77
2022/02/02 21:03:18;;;;;;;0.20;0.20;;;10.60;79.20;;;;;;5071216;28;20031;-77
2022/02/02 21:08:59;;;;;;;0.20;0.20;;;10.70;78.80;;;;;;5018099;28;20082;-77
2022/02/02 21:11:54;;;;;;;0.15;0.15;;;10.80;78.40;;;;;;5073089;28;20419;-77
2022/02/02 21:14:23;;;;;;;3.00;0.30;;;10.80;78.40;;;;;;5073498;28;20021;-77
2022/02/02 21:16:49;;;;;;;0.30;0.30;;;10.80;77.60;;;;;;5055237;28;20494;-77
2022/02/02 21:19:36;;;;;;;0.20;0.20;;;10.90;77.00;;;;;;5067852;28;20052;-77
2022/02/02 21:22:03;;;;;;;0.25;0.25;;;11.00;76.20;;;;;;5051142;28;20063;-78
2022/02/02 21:29:22;;;;;;;0.30;0.30;;;11.00;75.00;;;;;;5067272;28;20021;-77
2022/02/02 21:31:48;;;;;;;0.50;0.20;;;11.10;74.40;;;;;;5050219;28;20032;-77
2022/02/02 21:34:14;;;;;;;0.20;0.20;;;11.10;73.90;;;;;;5051103;28;20111;-77
2022/02/02 21:36:39;;;;;;;0.20;0.20;;;11.10;73.90;;;;;;5052019;28;20052;-77
2022/02/02 21:39:08;;;;;;;0.20;0.20;;;11.20;73.00;;;;;;5052847;28;20359;-77
2022/02/02 21:41:38;;;;;;;1.10;0.20;;;11.20;72.90;;;;;;5047117;28;20162;-77
2022/02/02 21:44:06;;;;;;;0.30;0.30;;;11.10;72.70;;;;;;5047705;28;20028;-77
2022/02/02 21:46:32;;;;;;;0.20;0.20;;;11.10;72.60;;;;;;5050599;28;20017;-77
2022/02/02 21:49:00;;;;;;;0.20;0.20;;;11.10;72.00;;;;;;5048377;28;20043;-78
2022/02/02 21:51:31;;;;;;;0.30;0.30;;;11.20;72.20;;;;;;5050207;28;20014;-77
2022/02/02 21:53:57;;;;;;;0.10;0.10;;;11.20;71.60;;;;;;5050052;28;20017;-77
2022/02/02 21:56:23;;;;;;;5.80;0.28;;;11.20;71.30;;;;;;5053033;28;20067;-77
2022/02/02 21:58:50;;;;;;;0.55;0.20;;;11.20;71.20;;;;;;5054585;28;20610;-77
2022/02/02 22:01:17;;;;;;;0.25;0.25;;;11.20;70.60;;;;;;5054395;28;20029;-78
2022/02/02 22:03:42;;;;;;;0.30;0.30;;;11.30;70.70;;;;;;5054425;28;20430;-77
2022/02/02 22:06:08;;;;;;;0.20;0.20;;;11.30;70.50;;;;;;5054384;28;20040;-77
2022/02/02 22:08:34;;;;;;;0.75;0.50;;;11.10;71.20;;;;;;5054469;28;20569;-77
2022/02/02 22:11:00;;;;;;;0.30;0.30;;;11.10;71.60;;;;;;5041688;28;20564;-77
2022/02/02 22:13:36;;;;;;;0.22;0.22;;;11.20;69.80;;;;;;5037009;28;20034;-77
2022/02/02 22:16:08;;;;;;;0.30;0.30;;;11.50;68.90;;;;;;5036740;28;20048;-74
2022/02/02 22:18:34;;;;;;;0.40;0.40;;;11.50;68.60;;;;;;5036432;28;20411;-74
2022/02/02 22:21:00;;;;;;;0.15;0.15;;;11.50;68.20;;;;;;5018181;28;20037;-74
2022/02/02 22:23:26;;;;;;;0.20;0.20;;;11.50;67.80;;;;;;5036832;28;20030;-74
2022/02/02 22:25:52;;;;;;;0.20;0.20;;;11.70;67.20;;;;;;5035955;28;20017;-74
2022/02/02 22:28:18;;;;;;;0.30;0.30;;;11.80;66.60;;;;;;5055975;28;20020;-74
2022/02/02 22:30:44;;;;;;;0.30;0.30;;;11.80;66.20;;;;;;5056078;28;20017;-74
2022/02/02 22:33:09;;;;;;;0.30;0.30;;;11.70;66.10;;;;;;5056213;28;20375;-74
2022/02/02 22:35:35;;;;;;;0.35;0.22;;;11.70;66.00;;;;;;5038190;28;20025;-74
2022/02/02 22:38:01;;;;;;;0.35;0.10;;;11.80;65.50;;;;;;5055863;28;20391;-74
2022/02/02 22:40:27;;;;;;;0.13;0.13;;;11.70;65.80;;;;;;5045418;28;20111;-74
2022/02/02 22:42:56;;;;;;;0.20;0.20;;;11.70;65.80;;;;;;5073448;28;20040;-74
2022/02/02 22:45:22;;;;;;;0.20;0.20;;;11.60;65.90;;;;;;5096287;28;20024;-77
2022/02/02 22:47:49;;;;;;;0.20;0.20;;;11.70;64.90;;;;;;5091846;28;20126;-77
2022/02/02 22:50:18;;;;;;;0.20;0.20;;;11.70;64.70;;;;;;5068939;28;20021;-77
2022/02/02 22:52:48;;;;;;;0.68;0.20;;;11.80;64.20;;;;;;5056027;28;20102;-77
2022/02/02 22:55:16;;;;;;;0.30;0.30;;;11.60;64.30;;;;;;5042560;28;20089;-77
2022/02/02 22:57:41;;;;;;;0.20;0.20;;;11.50;64.50;;;;;;5073058;28;20119;-77
2022/02/02 23:00:14;;;;;;;0.28;0.28;;;11.50;64.30;;;;;;5037181;28;20120;-77
2022/02/02 23:05:09;;;;;;;0.20;0.20;;;11.40;64.70;;;;;;5075784;28;20021;-77
2022/02/02 23:07:34;;;;;;;0.63;0.63;;;11.50;63.60;;;;;;5074374;28;20082;-77
2022/02/02 23:10:00;;;;;;;0.50;0.20;;;11.50;63.80;;;;;;5069299;28;20028;-75
2022/02/02 23:12:28;;;;;;;10.50;6.35;;;11.40;63.80;;;;;;5066221;28;20555;-74
2022/02/02 23:14:55;;;;;;;11.68;7.80;;;11.50;63.00;;;;;;5061237;28;20387;-74
2022/02/02 23:17:22;;;;;;;12.00;8.05;;;11.50;63.50;;;;;;5051489;28;20119;-74
2022/02/02 23:19:50;;;;;;;1.20;1.08;;;11.40;63.00;;;;;;5071456;28;20025;-75
2022/02/02 23:22:19;;;;;;;23.08;14.13;;;11.40;63.00;;;;;;5068598;28;20478;-75
2022/02/02 23:24:48;;;;;;;2.05;1.95;;;11.50;62.10;;;;;;5049565;28;20037;-74
2022/02/02 23:27:15;;;;;;;0.43;0.43;;;11.40;62.00;;;;;;5054671;28;20025;-75
2022/02/02 23:29:46;;;;;;;0.38;0.38;;;11.30;61.70;;;;;;5053459;28;20029;-74
2022/02/02 23:32:14;;;;;;;0.55;0.32;;;11.20;62.30;;;;;;5036357;28;20068;-77
2022/02/02 23:34:41;;;;;;;0.15;0.15;;;11.30;61.40;;;;;;5054869;28;20052;-77
2022/02/02 23:37:08;;;;;;;0.20;0.20;;;11.20;61.20;;;;;;5053678;28;20484;-77
2022/02/02 23:39:33;;;;;;;0.30;0.30;;;11.20;61.40;;;;;;5056957;28;20033;-77
2022/02/02 23:44:25;;;;;;;0.20;0.20;;;11.00;61.90;;;;;;5074641;28;20181;-77
2022/02/02 23:46:54;;;;;;;0.20;0.20;;;11.00;61.60;;;;;;5056433;28;20028;-77
2022/02/02 23:49:30;;;;;;;0.20;0.20;;;10.90;61.70;;;;;;5073955;28;20017;-77
2022/02/02 23:51:59;;;;;;;0.10;0.10;;;11.00;62.20;;;;;;5074904;28;20023;-77
2022/02/02 23:54:31;;;;;;;0.20;0.20;;;11.00;61.10;;;;;;5073375;28;20024;-77
2022/02/02 23:57:07;;;;;;;0.30;0.20;;;10.90;61.40;;;;;;5072129;28;20039;-77
